createdAt,value
2018-10-06T00:00:04.155Z,100316.34
2018-10-06T00:02:10.281Z,100311.37
2018-10-06T00:04:16.362Z,100316.45
2018-10-06T00:06:22.602Z,100314.17
2018-10-06T00:08:28.707Z,100311.48
2018-10-06T00:10:34.914Z,100306.61
2018-10-06T00:12:41.045Z,100310.50
2018-10-06T00:14:47.156Z,100305.53
2018-10-06T00:16:53.317Z,100310.66
2018-10-06T00:18:59.450Z,100318.23
2018-10-06T00:21:05.625Z,100308.45
2018-10-06T00:23:11.825Z,100309.31
2018-10-06T00:25:17.984Z,100309.93
2018-10-06T00:27:24.851Z,100305.59
2018-10-06T00:29:31.024Z,100302.86
2018-10-06T00:31:37.143Z,100297.60
2018-10-06T00:33:43.278Z,100299.18
2018-10-06T00:35:49.438Z,100304.91
2018-10-06T00:37:59.081Z,100298.00
2018-10-06T00:40:05.213Z,100299.08
2018-10-06T00:42:11.343Z,100300.75
2018-10-06T00:44:17.484Z,100293.77
2018-10-06T00:46:23.574Z,100296.02
2018-10-06T00:48:29.724Z,100297.77
2018-10-06T00:50:35.848Z,100290.05
2018-10-06T00:52:48.686Z,100294.91
2018-10-06T00:54:55.137Z,100289.87
2018-10-06T00:57:01.264Z,100289.53
2018-10-06T00:59:07.457Z,100286.05
2018-10-06T01:01:13.588Z,100289.41
2018-10-06T01:03:19.695Z,100279.42
2018-10-06T01:05:25.797Z,100284.33
2018-10-06T01:07:31.922Z,100283.38
2018-10-06T01:09:38.011Z,100282.06
2018-10-06T01:11:44.161Z,100274.33
2018-10-06T01:13:50.272Z,100273.18
2018-10-06T01:15:56.452Z,100270.28
2018-10-06T01:18:02.528Z,100268.50
2018-10-06T01:20:08.654Z,100260.04
2018-10-06T01:22:14.729Z,100261.89
2018-10-06T01:24:20.795Z,100257.72
2018-10-06T01:26:26.867Z,100257.82
2018-10-06T01:28:32.971Z,100257.70
2018-10-06T01:30:39.056Z,100253.36
2018-10-06T01:32:45.264Z,100246.21
2018-10-06T01:34:51.358Z,100255.17
2018-10-06T01:36:57.426Z,100248.94
2018-10-06T01:39:03.795Z,100251.73
2018-10-06T01:41:10.101Z,100250.75
2018-10-06T01:43:16.552Z,100252.20
2018-10-06T01:45:22.609Z,100252.48
2018-10-06T01:47:28.711Z,100247.13
2018-10-06T01:49:34.762Z,100246.55
2018-10-06T01:51:40.850Z,100238.05
2018-10-06T01:53:47.143Z,100242.32
2018-10-06T01:55:53.227Z,100241.92
2018-10-06T01:57:59.239Z,100242.60
2018-10-06T02:00:05.432Z,100246.37
2018-10-06T02:02:11.500Z,100235.68
2018-10-06T02:04:17.637Z,100234.65
2018-10-06T02:06:23.755Z,100232.45
2018-10-06T02:08:29.845Z,100228.39
2018-10-06T02:10:35.943Z,100230.84
2018-10-06T02:12:44.708Z,100228.23
2018-10-06T02:14:50.889Z,100233.91
2018-10-06T02:16:57.027Z,100235.89
2018-10-06T02:19:03.140Z,100238.06
2018-10-06T02:21:09.308Z,100231.16
2018-10-06T02:23:15.463Z,100239.83
2018-10-06T02:25:22.147Z,100240.94
2018-10-06T02:27:28.291Z,100235.53
2018-10-06T02:29:34.383Z,100227.14
2018-10-06T02:31:40.542Z,100231.32
2018-10-06T02:33:46.799Z,100232.70
2018-10-06T02:35:52.920Z,100227.20
2018-10-06T02:37:59.008Z,100223.87
2018-10-06T02:40:05.148Z,100217.30
2018-10-06T02:42:11.305Z,100210.74
2018-10-06T02:44:17.431Z,100212.11
2018-10-06T02:46:23.551Z,100211.07
2018-10-06T02:48:29.662Z,100209.05
2018-10-06T02:50:36.289Z,100205.39
2018-10-06T02:52:42.399Z,100201.20
2018-10-06T02:54:48.511Z,100205.74
2018-10-06T02:56:54.666Z,100200.55
2018-10-06T02:59:00.761Z,100203.12
2018-10-06T03:01:07.810Z,100208.47
2018-10-06T03:03:13.908Z,100209.45
2018-10-06T03:05:20.004Z,100217.77
2018-10-06T03:07:26.111Z,100209.55
2018-10-06T03:09:32.222Z,100217.98
2018-10-06T03:11:38.299Z,100213.92
2018-10-06T03:13:44.741Z,100213.83
2018-10-06T03:15:50.848Z,100216.21
2018-10-06T03:17:56.992Z,100212.67
2018-10-06T03:20:03.099Z,100211.11
2018-10-06T03:22:09.177Z,100203.69
2018-10-06T03:24:15.286Z,100201.06
2018-10-06T03:26:21.409Z,100197.86
2018-10-06T03:28:27.513Z,100197.22
2018-10-06T03:30:33.604Z,100192.70
2018-10-06T03:32:39.677Z,100195.23
2018-10-06T03:34:45.845Z,100191.56
2018-10-06T03:36:52.043Z,100187.03
2018-10-06T03:38:58.617Z,100186.39
2018-10-06T03:41:04.668Z,100189.61
2018-10-06T03:43:10.886Z,100194.09
2018-10-06T03:45:16.943Z,100190.30
2018-10-06T03:47:23.127Z,100189.45
2018-10-06T03:49:29.257Z,100198.17
2018-10-06T03:51:35.453Z,100190.70
2018-10-06T03:53:41.618Z,100193.27
2018-10-06T03:55:47.699Z,100192.78
2018-10-06T03:57:53.804Z,100188.84
2018-10-06T03:59:59.945Z,100195.40
2018-10-06T04:02:06.015Z,100190.16
2018-10-06T04:04:12.123Z,100188.02
2018-10-06T04:06:18.272Z,100181.92
2018-10-06T04:08:24.445Z,100176.73
2018-10-06T04:10:30.534Z,100173.77
2018-10-06T04:12:36.585Z,100171.29
2018-10-06T04:14:42.706Z,100172.34
2018-10-06T04:16:48.900Z,100176.80
2018-10-06T04:18:54.947Z,100172.61
2018-10-06T04:21:01.124Z,100173.47
2018-10-06T04:23:07.319Z,100167.30
2018-10-06T04:25:13.445Z,100170.64
2018-10-06T04:27:19.532Z,100164.33
2018-10-06T04:29:25.562Z,100163.67
2018-10-06T04:31:31.900Z,100167.39
2018-10-06T04:33:37.993Z,100166.94
2018-10-06T04:35:44.157Z,100159.16
2018-10-06T04:37:50.278Z,100164.92
2018-10-06T04:39:56.602Z,100161.59
2018-10-06T04:42:02.747Z,100156.66
2018-10-06T04:44:09.983Z,100158.36
2018-10-06T04:46:16.119Z,100152.87
2018-10-06T04:48:22.181Z,100156.46
2018-10-06T04:50:28.297Z,100153.13
2018-10-06T04:52:34.705Z,100149.40
2018-10-06T04:54:40.773Z,100150.31
2018-10-06T04:56:46.892Z,100154.25
2018-10-06T04:58:53.077Z,100148.86
2018-10-06T05:00:59.214Z,100149.25
2018-10-06T05:03:05.332Z,100156.21
2018-10-06T05:05:11.421Z,100156.61
2018-10-06T05:07:17.543Z,100155.81
2018-10-06T05:09:23.755Z,100155.87
2018-10-06T05:11:29.809Z,100155.05
2018-10-06T05:13:35.958Z,100155.81
2018-10-06T05:15:42.054Z,100158.38
2018-10-06T05:17:48.130Z,100157.47
2018-10-06T05:19:54.301Z,100160.48
2018-10-06T05:22:00.398Z,100160.94
2018-10-06T05:24:06.563Z,100165.79
2018-10-06T05:26:12.716Z,100157.12
2018-10-06T05:28:18.817Z,100153.25
2018-10-06T05:30:24.920Z,100156.73
2018-10-06T05:32:31.041Z,100156.88
2018-10-06T05:34:37.804Z,100154.05
2018-10-06T05:36:44.008Z,100157.68
2018-10-06T05:38:50.154Z,100156.88
2018-10-06T05:40:56.284Z,100157.19
2018-10-06T05:43:02.403Z,100160.16
2018-10-06T05:45:08.499Z,100161.06
2018-10-06T05:47:14.709Z,100161.02
2018-10-06T05:49:20.850Z,100159.24
2018-10-06T05:51:27.243Z,100159.24
2018-10-06T05:53:33.440Z,100161.06
2018-10-06T05:55:39.582Z,100166.45
2018-10-06T05:57:45.712Z,100163.84
2018-10-06T05:59:51.861Z,100164.60
2018-10-06T06:01:58.050Z,100157.53
2018-10-06T06:04:04.167Z,100153.91
2018-10-06T06:06:10.280Z,100160.30
2018-10-06T06:08:16.488Z,100154.90
2018-10-06T06:10:22.615Z,100152.52
2018-10-06T06:12:29.444Z,100152.01
2018-10-06T06:14:35.613Z,100161.05
2018-10-06T06:16:41.826Z,100154.73
2018-10-06T06:18:47.971Z,100165.09
2018-10-06T06:20:54.068Z,100167.81
2018-10-06T06:23:00.177Z,100163.60
2018-10-06T06:25:06.392Z,100169.37
2018-10-06T06:27:12.533Z,100166.54
2018-10-06T06:29:18.663Z,100167.64
2018-10-06T06:31:24.862Z,100168.28
2018-10-06T06:33:30.981Z,100172.80
2018-10-06T06:35:37.080Z,100175.11
2018-10-06T06:37:43.225Z,100176.70
2018-10-06T06:39:49.295Z,100176.70
2018-10-06T06:41:55.441Z,100173.91
2018-10-06T06:44:01.620Z,100182.95
2018-10-06T06:46:08.087Z,100189.79
2018-10-06T06:48:14.245Z,100193.51
2018-10-06T06:50:20.374Z,100190.27
2018-10-06T06:52:26.537Z,100188.38
2018-10-06T06:54:32.672Z,100180.79
2018-10-06T06:56:38.847Z,100183.26
2018-10-06T06:58:45.048Z,100178.17
2018-10-06T07:00:51.228Z,100166.75
2018-10-06T07:02:57.823Z,100166.98
2018-10-06T07:05:03.983Z,100166.39
2018-10-06T07:07:10.073Z,100164.30
2018-10-06T07:09:16.184Z,100169.52
2018-10-06T07:11:23.328Z,100166.95
2018-10-06T07:13:29.572Z,100171.42
2018-10-06T07:15:35.736Z,100171.88
2018-10-06T07:17:41.872Z,100171.12
2018-10-06T07:19:48.045Z,100169.41
2018-10-06T07:21:54.198Z,100163.38
2018-10-06T07:24:00.341Z,100162.05
2018-10-06T07:26:06.530Z,100157.33
2018-10-06T07:28:12.660Z,100151.58
2018-10-06T07:30:18.788Z,100152.44
2018-10-06T07:32:25.012Z,100147.54
2018-10-06T07:34:31.146Z,100145.72
2018-10-06T07:36:37.294Z,100147.04
2018-10-06T07:38:43.387Z,100146.53
2018-10-06T07:40:49.565Z,100148.27
2018-10-06T07:42:55.681Z,100144.23
2018-10-06T07:45:01.907Z,100142.97
2018-10-06T07:47:08.000Z,100144.23
2018-10-06T07:49:14.155Z,100154.65
2018-10-06T07:51:20.332Z,100149.63
2018-10-06T07:53:26.465Z,100143.76
2018-10-06T07:55:33.218Z,100139.77
2018-10-06T07:57:39.446Z,100132.64
2018-10-06T07:59:45.678Z,100129.93
2018-10-06T08:01:51.833Z,100130.34
2018-10-06T08:03:58.018Z,100127.71
2018-10-06T08:06:04.228Z,100127.66
2018-10-06T08:08:10.418Z,100130.71
2018-10-06T08:10:16.547Z,100128.48
2018-10-06T08:12:22.669Z,100133.28
2018-10-06T08:14:28.896Z,100129.73
2018-10-06T08:16:35.204Z,100134.53
2018-10-06T08:18:41.416Z,100139.36
2018-10-06T08:20:48.188Z,100128.78
2018-10-06T08:22:54.251Z,100133.52
2018-10-06T08:25:00.491Z,100129.16
2018-10-06T08:27:06.850Z,100130.48
2018-10-06T08:29:12.992Z,100126.14
2018-10-06T08:31:19.167Z,100118.69
2018-10-06T08:33:25.310Z,100119.13
2018-10-06T08:35:31.487Z,100119.13
2018-10-06T08:37:37.576Z,100113.88
2018-10-06T08:39:44.023Z,100108.20
2018-10-06T08:41:50.237Z,100115.14
2018-10-06T08:43:56.424Z,100117.66
2018-10-06T08:46:02.640Z,100112.83
2018-10-06T08:48:08.858Z,100119.80
2018-10-06T08:50:15.106Z,100111.82
2018-10-06T08:52:21.657Z,100110.48
2018-10-06T08:54:27.816Z,100099.75
2018-10-06T08:56:33.999Z,100097.55
2018-10-06T08:58:40.121Z,100109.91
2018-10-06T09:00:46.275Z,100110.92
2018-10-06T09:02:52.509Z,100104.46
2018-10-06T09:04:58.602Z,100097.16
2018-10-06T09:07:04.883Z,100096.96
2018-10-06T09:09:11.055Z,100092.80
2018-10-06T09:11:17.211Z,100096.08
2018-10-06T09:13:23.358Z,100101.09
2018-10-06T09:15:29.567Z,100106.06
2018-10-06T09:17:35.750Z,100101.30
2018-10-06T09:19:41.886Z,100099.66
2018-10-06T09:21:47.993Z,100101.61
2018-10-06T09:23:54.195Z,100100.94
2018-10-06T09:26:00.391Z,100091.82
2018-10-06T09:28:06.950Z,100088.09
2018-10-06T09:30:13.076Z,100088.28
2018-10-06T09:32:19.212Z,100091.55
2018-10-06T09:34:27.223Z,100093.59
2018-10-06T09:36:33.410Z,100091.23
2018-10-06T09:38:39.493Z,100087.87
2018-10-06T09:40:45.608Z,100093.35
2018-10-06T09:42:51.717Z,100095.30
2018-10-06T09:44:57.801Z,100089.19
2018-10-06T09:47:03.925Z,100082.72
2018-10-06T09:49:10.042Z,100087.58
2018-10-06T09:51:16.267Z,100083.17
2018-10-06T09:53:22.477Z,100079.23
2018-10-06T09:55:28.611Z,100084.37
2018-10-06T09:57:34.705Z,100085.51
2018-10-06T09:59:40.837Z,100083.16
2018-10-06T10:01:52.274Z,100081.16
2018-10-06T10:04:03.501Z,100073.84
2018-10-06T10:06:09.613Z,100069.69
2018-10-06T10:08:15.857Z,100070.80
2018-10-06T10:10:21.921Z,100063.47
2018-10-06T10:12:28.762Z,100056.64
2018-10-06T10:14:34.953Z,100055.94
2018-10-06T10:16:41.080Z,100052.75
2018-10-06T10:18:47.275Z,100052.52
2018-10-06T10:20:53.418Z,100053.13
2018-10-06T10:23:00.114Z,100038.05
2018-10-06T10:25:06.556Z,100037.70
2018-10-06T10:27:12.691Z,100035.31
2018-10-06T10:29:18.819Z,100028.42
2018-10-06T10:31:25.211Z,100028.79
2018-10-06T10:33:32.930Z,100030.12
2018-10-06T10:35:39.081Z,100026.13
2018-10-06T10:37:45.240Z,100026.61
2018-10-06T10:39:51.400Z,100021.80
2018-10-06T10:41:57.480Z,100008.98
2018-10-06T10:44:03.725Z,100011.27
2018-10-06T10:46:09.974Z,100008.72
2018-10-06T10:48:16.368Z,100012.70
2018-10-06T10:50:22.529Z,100013.05
2018-10-06T10:52:28.787Z,100000.56
2018-10-06T10:54:34.969Z,100005.63
2018-10-06T10:56:41.091Z,99992.53
2018-10-06T10:58:47.254Z,99995.16
2018-10-06T11:00:53.472Z,99995.59
2018-10-06T11:02:59.552Z,99979.72
2018-10-06T11:05:06.073Z,99978.34
2018-10-06T11:07:12.225Z,99973.08
2018-10-06T11:09:18.451Z,99959.81
2018-10-06T11:11:24.639Z,99953.92
2018-10-06T11:13:30.754Z,99956.15
2018-10-06T11:15:36.879Z,99957.03
2018-10-06T11:17:43.086Z,99956.59
2018-10-06T11:19:49.229Z,99955.24
2018-10-06T11:21:57.047Z,99950.99
2018-10-06T11:24:03.876Z,99949.61
2018-10-06T11:26:10.036Z,99939.16
2018-10-06T11:28:16.129Z,99946.89
2018-10-06T11:30:22.218Z,99942.25
2018-10-06T11:32:29.126Z,99938.13
2018-10-06T11:34:35.227Z,99931.70
2018-10-06T11:36:41.366Z,99929.79
2018-10-06T11:38:47.497Z,99928.89
2018-10-06T11:40:53.701Z,99927.02
2018-10-06T11:43:00.007Z,99926.47
2018-10-06T11:45:06.269Z,99915.73
2018-10-06T11:47:12.590Z,99911.05
2018-10-06T11:49:18.758Z,99906.14
2018-10-06T11:51:25.145Z,99900.74
2018-10-06T11:53:31.330Z,99898.14
2018-10-06T11:55:37.444Z,99899.57
2018-10-06T11:57:43.731Z,99891.27
2018-10-06T11:59:50.035Z,99891.00
2018-10-06T12:01:56.199Z,99883.68
2018-10-06T12:04:02.325Z,99885.23
2018-10-06T12:06:08.499Z,99889.79
2018-10-06T12:08:15.276Z,99879.34
2018-10-06T12:10:21.451Z,99884.02
2018-10-06T12:12:27.767Z,99877.70
2018-10-06T12:14:33.923Z,99873.92
2018-10-06T12:16:40.122Z,99869.27
2018-10-06T12:18:47.107Z,99868.52
2018-10-06T12:20:53.286Z,99869.19
2018-10-06T12:22:59.408Z,99868.08
2018-10-06T12:25:05.674Z,99873.60
2018-10-06T12:27:11.900Z,99862.66
2018-10-06T12:29:18.158Z,99865.16
2018-10-06T12:31:24.351Z,99860.04
2018-10-06T12:33:30.483Z,99858.56
2018-10-06T12:35:36.612Z,99854.75
2018-10-06T12:37:42.861Z,99857.28
2018-10-06T12:39:49.031Z,99853.98
2018-10-06T12:41:55.146Z,99852.98
2018-10-06T12:44:01.264Z,99863.03
2018-10-06T12:46:07.432Z,99851.86
2018-10-06T12:48:13.655Z,99850.22
2018-10-06T12:50:19.936Z,99848.39
2018-10-06T12:52:26.052Z,99848.26
2018-10-06T12:54:32.176Z,99848.94
2018-10-06T12:56:38.469Z,99846.62
2018-10-06T12:58:44.601Z,99846.97
2018-10-06T13:00:50.788Z,99840.65
2018-10-06T13:02:58.086Z,99837.48
2018-10-06T13:05:04.197Z,99837.84
2018-10-06T13:07:10.402Z,99834.68
2018-10-06T13:09:16.757Z,99830.15
2018-10-06T13:11:23.684Z,99829.52
2018-10-06T13:13:29.901Z,99828.05
2018-10-06T13:15:36.309Z,99832.44
2018-10-06T13:17:42.522Z,99825.59
2018-10-06T13:19:48.670Z,99821.09
2018-10-06T13:21:54.829Z,99822.30
2018-10-06T13:24:01.015Z,99816.64
2018-10-06T13:26:07.268Z,99818.33
2018-10-06T13:28:13.544Z,99811.87
2018-10-06T13:30:19.688Z,99817.75
2018-10-06T13:32:26.263Z,99819.27
2018-10-06T13:34:32.546Z,99811.95
2018-10-06T13:36:39.141Z,99813.15
2018-10-06T13:38:45.539Z,99817.34
2018-10-06T13:40:51.660Z,99811.01
2018-10-06T13:42:57.857Z,99812.70
2018-10-06T13:45:04.112Z,99806.86
2018-10-06T13:47:10.291Z,99810.87
2018-10-06T13:49:16.484Z,99808.20
2018-10-06T13:51:22.670Z,99805.38
2018-10-06T13:53:28.873Z,99808.38
2018-10-06T13:55:34.970Z,99812.39
2018-10-06T13:57:41.122Z,99805.08
2018-10-06T13:59:47.433Z,99800.08
2018-10-06T14:01:53.542Z,99802.93
2018-10-06T14:03:59.934Z,99801.95
2018-10-06T14:06:06.856Z,99798.78
2018-10-06T14:08:13.149Z,99799.48
2018-10-06T14:10:19.394Z,99790.98
2018-10-06T14:12:25.493Z,99785.45
2018-10-06T14:14:31.751Z,99786.66
2018-10-06T14:16:37.904Z,99778.14
2018-10-06T14:18:44.108Z,99783.34
2018-10-06T14:20:50.273Z,99771.64
2018-10-06T14:22:56.434Z,99768.12
2018-10-06T14:25:02.653Z,99770.80
2018-10-06T14:27:09.515Z,99764.95
2018-10-06T14:29:15.650Z,99771.14
2018-10-06T14:31:21.953Z,99766.78
2018-10-06T14:33:28.100Z,99760.27
2018-10-06T14:35:34.322Z,99755.42
2018-10-06T14:37:41.552Z,99756.76
2018-10-06T14:39:48.051Z,99760.06
2018-10-06T14:41:54.264Z,99753.88
2018-10-06T14:44:00.707Z,99748.21
2018-10-06T14:46:07.350Z,99751.03
2018-10-06T14:48:13.472Z,99750.19
2018-10-06T14:50:19.809Z,99744.14
2018-10-06T14:52:25.946Z,99747.30
2018-10-06T14:54:32.316Z,99744.98
2018-10-06T14:56:38.573Z,99741.95
2018-10-06T14:58:44.637Z,99741.95
2018-10-06T15:00:50.767Z,99742.13
2018-10-06T15:02:56.954Z,99743.96
2018-10-06T15:05:03.259Z,99736.44
2018-10-06T15:07:09.407Z,99746.28
2018-10-06T15:09:15.548Z,99736.23
2018-10-06T15:11:21.705Z,99734.58
2018-10-06T15:13:27.952Z,99730.70
2018-10-06T15:15:34.080Z,99730.84
2018-10-06T15:17:41.545Z,99731.34
2018-10-06T15:19:48.110Z,99723.50
2018-10-06T15:21:55.078Z,99722.80
2018-10-06T15:24:01.801Z,99719.14
2018-10-06T15:26:09.444Z,99725.33
2018-10-06T15:28:18.245Z,99725.47
2018-10-06T15:30:25.110Z,99719.77
2018-10-06T15:32:31.793Z,99714.75
2018-10-06T15:34:39.561Z,99718.41
2018-10-06T15:36:47.476Z,99715.38
2018-10-06T15:38:53.569Z,99713.34
2018-10-06T15:41:00.116Z,99710.84
2018-10-06T15:43:08.009Z,99709.79
2018-10-06T15:45:14.498Z,99709.47
2018-10-06T15:47:21.661Z,99709.61
2018-10-06T15:49:28.261Z,99702.58
2018-10-06T15:51:35.927Z,99696.54
2018-10-06T15:53:42.623Z,99690.35
2018-10-06T15:55:49.408Z,99698.72
2018-10-06T15:57:55.549Z,99697.17
2018-10-06T16:00:02.088Z,99700.22
2018-10-06T16:02:08.389Z,99698.51
2018-10-06T16:04:14.562Z,99692.95
2018-10-06T16:06:20.742Z,99699.94
2018-10-06T16:08:26.899Z,99698.40
2018-10-06T16:10:33.144Z,99696.39
2018-10-06T16:12:39.294Z,99697.52
2018-10-06T16:14:45.498Z,99693.47
2018-10-06T16:16:51.714Z,99700.95
2018-10-06T16:18:57.835Z,99697.36
2018-10-06T16:21:04.316Z,99694.16
2018-10-06T16:23:10.491Z,99694.42
2018-10-06T16:25:16.643Z,99700.00
2018-10-06T16:27:22.891Z,99688.70
2018-10-06T16:29:29.523Z,99688.13
2018-10-06T16:31:35.696Z,99685.20
2018-10-06T16:33:42.654Z,99691.11
2018-10-06T16:35:48.910Z,99684.49
2018-10-06T16:37:55.007Z,99688.80
2018-10-06T16:40:01.178Z,99686.08
2018-10-06T16:42:07.455Z,99682.84
2018-10-06T16:44:13.645Z,99687.28
2018-10-06T16:46:19.759Z,99694.61
2018-10-06T16:48:25.888Z,99691.01
2018-10-06T16:50:32.136Z,99689.84
2018-10-06T16:52:38.344Z,99691.45
2018-10-06T16:54:44.479Z,99692.95
2018-10-06T16:56:50.675Z,99684.72
2018-10-06T16:58:56.884Z,99689.02
2018-10-06T17:01:03.079Z,99686.44
2018-10-06T17:03:09.380Z,99680.70
2018-10-06T17:05:15.535Z,99687.63
2018-10-06T17:07:21.736Z,99689.03
2018-10-06T17:09:27.923Z,99686.80
2018-10-06T17:11:34.160Z,99691.58
2018-10-06T17:13:40.343Z,99686.25
2018-10-06T17:15:46.455Z,99686.52
2018-10-06T17:17:54.536Z,99690.94
2018-10-06T17:20:00.754Z,99690.30
2018-10-06T17:22:07.657Z,99692.05
2018-10-06T17:24:13.895Z,99694.13
2018-10-06T17:26:20.003Z,99693.72
2018-10-06T17:28:26.118Z,99695.69
2018-10-06T17:30:32.311Z,99698.91
2018-10-06T17:32:38.485Z,99694.00
2018-10-06T17:34:44.735Z,99693.58
2018-10-06T17:36:51.176Z,99689.91
2018-10-06T17:38:57.448Z,99690.61
2018-10-06T17:41:03.669Z,99689.95
2018-10-06T17:43:12.550Z,99695.48
2018-10-06T17:45:18.653Z,99696.28
2018-10-06T17:47:24.893Z,99692.80
2018-10-06T17:49:31.062Z,99696.76
2018-10-06T17:51:37.311Z,99703.61
2018-10-06T17:53:43.535Z,99704.83
2018-10-06T17:55:49.663Z,99704.14
2018-10-06T17:57:55.805Z,99705.34
2018-10-06T18:00:01.989Z,99705.55
2018-10-06T18:02:08.371Z,99704.79
2018-10-06T18:04:14.689Z,99707.20
2018-10-06T18:06:20.899Z,99712.23
2018-10-06T18:08:27.080Z,99705.09
2018-10-06T18:10:33.501Z,99705.59
2018-10-06T18:12:39.744Z,99710.22
2018-10-06T18:14:46.026Z,99709.50
2018-10-06T18:16:52.415Z,99703.86
2018-10-06T18:18:58.644Z,99700.08
2018-10-06T18:21:04.937Z,99704.72
2018-10-06T18:23:11.137Z,99705.88
2018-10-06T18:25:17.351Z,99702.66
2018-10-06T18:27:23.665Z,99707.45
2018-10-06T18:29:29.917Z,99709.30
2018-10-06T18:31:36.090Z,99710.90
2018-10-06T18:33:42.288Z,99702.20
2018-10-06T18:35:48.456Z,99708.00
2018-10-06T18:37:55.197Z,99707.52
2018-10-06T18:40:01.416Z,99710.05
2018-10-06T18:42:07.626Z,99714.61
2018-10-06T18:44:13.901Z,99714.13
2018-10-06T18:46:20.339Z,99713.64
2018-10-06T18:48:26.541Z,99710.63
2018-10-06T18:50:32.755Z,99715.45
2018-10-06T18:52:39.015Z,99711.47
2018-10-06T18:54:45.200Z,99711.83
2018-10-06T18:56:51.415Z,99710.50
2018-10-06T18:58:57.648Z,99711.50
2018-10-06T19:01:04.279Z,99710.45
2018-10-06T19:03:10.553Z,99718.48
2018-10-06T19:05:16.806Z,99713.34
2018-10-06T19:07:23.032Z,99721.60
2018-10-06T19:09:29.255Z,99719.45
2018-10-06T19:11:35.801Z,99718.75
2018-10-06T19:13:41.946Z,99730.07
2018-10-06T19:15:48.799Z,99721.14
2018-10-06T19:17:54.929Z,99720.08
2018-10-06T19:20:01.074Z,99724.41
2018-10-06T19:22:07.370Z,99727.72
2018-10-06T19:24:13.445Z,99729.80
2018-10-06T19:26:19.654Z,99730.28
2018-10-06T19:28:25.885Z,99730.12
2018-10-06T19:30:32.064Z,99729.65
2018-10-06T19:32:38.263Z,99732.19
2018-10-06T19:34:44.528Z,99737.38
2018-10-06T19:36:50.894Z,99736.45
2018-10-06T19:38:58.836Z,99736.21
2018-10-06T19:41:05.078Z,99733.82
2018-10-06T19:43:11.325Z,99736.48
2018-10-06T19:45:17.576Z,99739.34
2018-10-06T19:47:23.739Z,99728.86
2018-10-06T19:49:29.914Z,99741.41
2018-10-06T19:51:36.192Z,99733.09
2018-10-06T19:53:42.376Z,99734.89
2018-10-06T19:55:48.644Z,99733.94
2018-10-06T19:57:55.382Z,99736.84
2018-10-06T20:00:01.760Z,99742.63
2018-10-06T20:02:08.134Z,99741.80
2018-10-06T20:04:14.493Z,99741.33
2018-10-06T20:06:20.602Z,99742.06
2018-10-06T20:08:26.767Z,99749.77
2018-10-06T20:10:33.436Z,99743.38
2018-10-06T20:12:39.826Z,99748.69
2018-10-06T20:14:45.975Z,99745.55
2018-10-06T20:16:52.215Z,99748.58
2018-10-06T20:18:58.471Z,99750.97
2018-10-06T20:21:04.672Z,99746.03
2018-10-06T20:23:10.808Z,99744.34
2018-10-06T20:25:17.021Z,99743.38
2018-10-06T20:27:23.230Z,99754.47
2018-10-06T20:29:29.404Z,99755.42
2018-10-06T20:31:35.659Z,99753.02
2018-10-06T20:33:41.857Z,99755.44
2018-10-06T20:35:48.059Z,99756.63
2018-10-06T20:37:54.287Z,99763.25
2018-10-06T20:40:00.523Z,99763.39
2018-10-06T20:42:06.846Z,99753.27
2018-10-06T20:44:13.080Z,99758.42
2018-10-06T20:46:19.488Z,99756.03
2018-10-06T20:48:25.620Z,99759.27
2018-10-06T20:50:31.776Z,99754.59
2018-10-06T20:52:37.962Z,99758.42
2018-10-06T20:54:44.253Z,99760.86
2018-10-06T20:56:50.429Z,99760.48
2018-10-06T20:58:56.659Z,99756.39
2018-10-06T21:01:03.185Z,99756.02
2018-10-06T21:03:09.439Z,99757.07
2018-10-06T21:05:15.696Z,99755.36
2018-10-06T21:07:21.957Z,99747.77
2018-10-06T21:09:28.138Z,99752.91
2018-10-06T21:11:34.430Z,99754.00
2018-10-06T21:13:40.543Z,99751.71
2018-10-06T21:15:46.765Z,99748.69
2018-10-06T21:17:52.893Z,99751.81
2018-10-06T21:19:59.081Z,99752.30
2018-10-06T21:22:05.274Z,99750.73
2018-10-06T21:24:11.523Z,99742.05
2018-10-06T21:26:17.718Z,99745.42
2018-10-06T21:28:24.097Z,99745.27
2018-10-06T21:30:30.227Z,99746.09
2018-10-06T21:32:36.570Z,99739.45
2018-10-06T21:34:42.720Z,99743.19
2018-10-06T21:36:48.924Z,99735.70
2018-10-06T21:38:55.413Z,99742.42
2018-10-06T21:41:01.547Z,99738.70
2018-10-06T21:43:07.776Z,99731.47
2018-10-06T21:45:13.896Z,99740.47
2018-10-06T21:47:20.044Z,99734.57
2018-10-06T21:49:26.263Z,99733.25
2018-10-06T21:51:32.438Z,99735.15
2018-10-06T21:53:38.505Z,99732.38
2018-10-06T21:55:44.675Z,99730.65
2018-10-06T21:57:51.472Z,99732.76
2018-10-06T21:59:57.605Z,99729.61
2018-10-06T22:02:03.821Z,99725.13
2018-10-06T22:04:10.075Z,99727.64
2018-10-06T22:06:16.370Z,99726.66
2018-10-06T22:08:22.612Z,99725.67
2018-10-06T22:10:28.789Z,99722.86
2018-10-06T22:12:35.003Z,99725.50
2018-10-06T22:14:41.200Z,99716.20
2018-10-06T22:16:47.522Z,99716.30
2018-10-06T22:18:53.660Z,99717.36
2018-10-06T22:20:59.857Z,99724.10
2018-10-06T22:23:06.207Z,99720.61
2018-10-06T22:25:12.352Z,99723.62
2018-10-06T22:27:18.588Z,99720.98
2018-10-06T22:29:24.858Z,99717.48
2018-10-06T22:31:30.946Z,99723.12
2018-10-06T22:33:37.133Z,99723.62
2018-10-06T22:35:43.248Z,99724.44
2018-10-06T22:37:49.400Z,99726.19
2018-10-06T22:39:55.523Z,99725.30
2018-10-06T22:42:01.726Z,99724.17
2018-10-06T22:44:07.908Z,99723.70
2018-10-06T22:46:14.059Z,99727.57
2018-10-06T22:48:20.275Z,99727.57
2018-10-06T22:50:26.460Z,99724.69
2018-10-06T22:52:32.592Z,99717.80
2018-10-06T22:54:38.779Z,99722.47
2018-10-06T22:56:44.988Z,99723.38
2018-10-06T22:58:51.105Z,99725.97
2018-10-06T23:00:57.269Z,99721.17
2018-10-06T23:03:03.428Z,99720.55
2018-10-06T23:05:09.535Z,99729.80
2018-10-06T23:07:15.699Z,99722.72
2018-10-06T23:09:22.661Z,99721.17
2018-10-06T23:11:28.781Z,99722.90
2018-10-06T23:13:34.933Z,99729.23
2018-10-06T23:15:41.049Z,99727.01
2018-10-06T23:17:47.257Z,99728.75
2018-10-06T23:19:53.409Z,99734.58
2018-10-06T23:21:59.577Z,99735.84
2018-10-06T23:24:05.716Z,99736.13
2018-10-06T23:26:11.867Z,99730.60
2018-10-06T23:28:17.924Z,99728.66
2018-10-06T23:30:24.271Z,99738.19
2018-10-06T23:32:30.454Z,99737.78
2018-10-06T23:34:36.623Z,99739.41
2018-10-06T23:36:42.680Z,99741.99
2018-10-06T23:38:48.796Z,99743.50
2018-10-06T23:40:54.929Z,99738.06
2018-10-06T23:43:01.063Z,99739.00
2018-10-06T23:45:07.328Z,99737.21
2018-10-06T23:47:13.487Z,99744.28
2018-10-06T23:49:19.690Z,99743.55
2018-10-06T23:51:25.824Z,99742.64
2018-10-06T23:53:31.970Z,99737.30
2018-10-06T23:55:38.106Z,99745.99
2018-10-06T23:57:44.246Z,99748.81
2018-10-06T23:59:50.347Z,99752.42
